PHKO METAR and TAF weather

Enter ICAO airport designator
Station Type Date Time Source
PHKO METAR 2019/02/17 14:53 UTC NOAA

PHKO 171453Z AUTO 11007KT 10SM CLR 19/15 RMK AO2 SLPNO T01940150 TSNO $


Station Type Date Time Source
PHKO Decoded METAR 2019/02/17 14:53 UTC NOAA

KONA INTERNATIONAL AIRPORT, HI, United States (PHKO) 19-44N 156-03W 27M
Feb 17, 2019 - 09:53 AM EST / 2019.02.17 1453 UTC
Wind: from the ESE (110 degrees) at 8 MPH (7 KT):0
Visibility: 10 mile(s):0
Sky conditions: clear
Temperature: 66.9 F (19.4 C)
Dew Point: 59.0 F (15.0 C)
Relative Humidity: 75%
ob: PHKO 171453Z AUTO 11007KT 10SM CLR 19/15 RMK AO2 SLPNO T01940150 TSNO
cycle: 15

Station Type Date Time Source
PHKO TAF 2019/02/17 12:22 UTC NOAA

TAF PHKO 171120Z 1712/1812 10005KT P6SM FEW050
FM172000 30010KT P6SM SCT050
FM180100 33010KT P6SM FEW025 BKN050
FM180800 05005KT P6SM FEW025 BKN050


Example: see airport list